Happy Valley, Tennessee
Current Conditions -  °F | °C
As of 3:53 PM on Thursday 18 Dec 2014 (Local Time) from KTYS Reporting Station
Overcast Overcast  
Wind Chill: 43°   Ceiling: 5500
Heat Index: 43°   Visibility: 10mi
Dew Point: 31°   Wind: 0mph
Humidity: 62%   Direction: NA
Pressure: 30.14"   Gusts: NA
Location:  35.5537°N, 83.9603°W
Report Text: KTYS 182053Z 00000KT 10SM FEW049 OVC055 06/M01 A3014 RMK AO2 SLP210 T00611006 55006
Loading
Personal Weather Stations






























Interactive Weather Map New forecast layout! Learn more

10-Day Weather Forecast

Advertisements
Track Severe Weather on mobile